Terminal Aerodrome Forecast
Issued by NWS

Home | Current Version | Previous Version | Text Only | Print | Product List | Glossary On
Versions: 1 2 3 4 5 6 7 8 9 10 11 12 13 14 15 16
888
FTUS43 KMPX 221731
TAFRNH
TAF
KRNH 221731Z 2218/2318 27011KT P6SM SCT150
     FM222200 23009KT P6SM SKC
     FM230200 18006KT P6SM SCT200
     FM230600 18008KT P6SM BKN150
     FM231400 23006KT P6SM BKN110
     FM231700 28010KT P6SM SCT120=

USA.gov is the U.S. government's official web portal to all federal, state and local government web resources and services.